createdAt,value
2024-02-13T00:01:41.922Z,5.87
2024-02-13T00:04:11.307Z,5.73
2024-02-13T00:06:40.608Z,5.70
2024-02-13T00:09:12.427Z,6.40
2024-02-13T00:11:42.996Z,6.30
2024-02-13T00:14:13.984Z,5.83
2024-02-13T00:16:45.277Z,6.13
2024-02-13T00:19:15.521Z,5.30
2024-02-13T00:21:45.386Z,5.70
2024-02-13T00:24:17.355Z,5.10
2024-02-13T00:26:47.826Z,5.63
2024-02-13T00:29:16.760Z,5.20
2024-02-13T00:31:46.212Z,5.60
2024-02-13T00:34:35.144Z,5.53
2024-02-13T00:37:03.772Z,5.73
2024-02-13T00:39:33.981Z,5.43
2024-02-13T00:42:03.791Z,5.43
2024-02-13T00:44:32.539Z,5.50
2024-02-13T00:47:01.182Z,5.77
2024-02-13T00:49:29.901Z,5.90
2024-02-13T00:51:59.151Z,6.00
2024-02-13T00:54:28.485Z,6.00
2024-02-13T00:56:58.487Z,5.87
2024-02-13T00:59:27.254Z,5.33
2024-02-13T01:01:55.835Z,5.80
2024-02-13T01:04:24.519Z,5.60
2024-02-13T01:06:53.508Z,6.10
2024-02-13T01:09:22.148Z,6.27
2024-02-13T01:11:51.843Z,6.13
2024-02-13T01:14:22.746Z,6.40
2024-02-13T01:16:52.646Z,6.00
2024-02-13T01:19:21.666Z,6.47
2024-02-13T01:21:50.916Z,5.40
2024-02-13T01:24:19.500Z,6.00
2024-02-13T01:26:48.753Z,5.70
2024-02-13T01:29:17.462Z,5.57
2024-02-13T01:31:48.873Z,5.60
2024-02-13T01:34:17.668Z,5.37
2024-02-13T01:36:47.718Z,5.57
2024-02-13T01:39:16.818Z,6.10
2024-02-13T01:41:47.404Z,5.30
2024-02-13T01:44:17.528Z,5.47
2024-02-13T01:46:47.946Z,5.63
2024-02-13T01:49:16.852Z,6.13
2024-02-13T01:51:46.046Z,5.83
2024-02-13T01:54:14.595Z,6.10
2024-02-13T01:56:44.270Z,6.07
2024-02-13T01:59:15.421Z,6.07
2024-02-13T02:01:44.549Z,5.83
2024-02-13T02:04:15.467Z,6.20
2024-02-13T02:06:44.451Z,5.97
2024-02-13T02:09:12.988Z,5.63
2024-02-13T02:11:41.504Z,5.23
2024-02-13T02:14:10.416Z,5.60
2024-02-13T02:17:09.436Z,6.13
2024-02-13T02:19:39.383Z,5.47
2024-02-13T02:22:08.379Z,6.10
2024-02-13T02:24:37.293Z,5.53
2024-02-13T02:27:12.422Z,5.20
2024-02-13T02:29:46.247Z,6.43
2024-02-13T02:32:14.838Z,5.00
2024-02-13T02:34:43.390Z,5.90
2024-02-13T02:37:13.601Z,5.23
2024-02-13T02:39:42.187Z,5.40
2024-02-13T02:42:14.397Z,5.23
2024-02-13T02:44:42.928Z,4.90
2024-02-13T02:47:12.493Z,4.63
2024-02-13T02:49:41.887Z,4.90
2024-02-13T02:52:10.551Z,5.20
2024-02-13T02:54:40.891Z,4.77
2024-02-13T02:57:11.598Z,5.40
2024-02-13T02:59:41.593Z,5.23
2024-02-13T03:02:10.401Z,6.33
2024-02-13T03:04:38.994Z,6.20
2024-02-13T03:07:09.232Z,6.37
2024-02-13T03:09:37.755Z,6.17
2024-02-13T03:12:07.022Z,5.70
2024-02-13T03:14:35.582Z,6.70
2024-02-13T03:17:08.264Z,5.60
2024-02-13T03:19:36.791Z,5.50
2024-02-13T03:22:05.435Z,6.40
2024-02-13T03:24:34.282Z,6.30
2024-02-13T03:27:03.458Z,5.83
2024-02-13T03:29:52.004Z,5.80
2024-02-13T03:32:22.366Z,5.90
2024-02-13T03:34:51.255Z,5.77
2024-02-13T03:37:20.662Z,6.27
2024-02-13T03:39:49.772Z,5.70
2024-02-13T03:42:18.419Z,6.30
2024-02-13T03:44:47.692Z,5.50
2024-02-13T03:47:16.302Z,6.00
2024-02-13T03:49:46.701Z,6.23
2024-02-13T03:52:15.219Z,6.10
2024-02-13T03:54:45.793Z,6.53
2024-02-13T03:57:15.471Z,6.40
2024-02-13T03:59:44.592Z,5.73
2024-02-13T04:02:13.353Z,5.80
2024-02-13T04:04:42.282Z,5.17
2024-02-13T04:07:12.186Z,5.57
2024-02-13T04:09:40.774Z,4.80
2024-02-13T04:12:11.220Z,5.77
2024-02-13T04:14:39.928Z,5.03
2024-02-13T04:17:08.497Z,4.87
2024-02-13T04:19:40.073Z,5.20
2024-02-13T04:22:09.538Z,5.27
2024-02-13T04:24:39.394Z,5.23
2024-02-13T04:27:08.329Z,4.90
2024-02-13T04:29:36.904Z,4.93
2024-02-13T04:32:07.043Z,5.17
2024-02-13T04:34:35.759Z,5.13
2024-02-13T04:37:04.318Z,5.10
2024-02-13T04:39:33.321Z,4.63
2024-02-13T04:42:03.604Z,4.73
2024-02-13T04:44:32.267Z,4.10
2024-02-13T04:47:00.791Z,4.87
2024-02-13T04:49:29.724Z,4.70
2024-02-13T04:51:58.213Z,4.83
2024-02-13T04:54:26.993Z,5.17
2024-02-13T04:56:56.729Z,5.20
2024-02-13T04:59:28.377Z,4.77
2024-02-13T05:01:56.902Z,4.73
2024-02-13T05:04:43.254Z,4.67
2024-02-13T05:07:24.474Z,5.27
2024-02-13T05:09:54.442Z,4.17
2024-02-13T05:12:23.503Z,4.43
2024-02-13T05:14:54.309Z,4.90
2024-02-13T05:17:25.173Z,4.80
2024-02-13T05:19:54.425Z,5.23
2024-02-13T05:22:23.099Z,5.10
2024-02-13T05:24:51.640Z,5.80
2024-02-13T05:27:20.206Z,5.73
2024-02-13T05:29:49.059Z,5.17
2024-02-13T05:32:19.731Z,4.80
2024-02-13T05:34:48.382Z,5.67
2024-02-13T05:37:20.461Z,6.03
2024-02-13T05:39:51.208Z,5.37
2024-02-13T05:42:20.185Z,5.07
2024-02-13T05:44:48.806Z,4.63
2024-02-13T05:47:19.513Z,4.73
2024-02-13T05:49:49.273Z,5.40
2024-02-13T05:52:19.276Z,5.00
2024-02-13T05:54:48.436Z,5.17
2024-02-13T05:57:16.951Z,5.60
2024-02-13T05:59:45.737Z,5.43
2024-02-13T06:02:14.492Z,6.00
2024-02-13T06:04:45.119Z,5.83
2024-02-13T06:07:15.601Z,5.83
2024-02-13T06:09:44.156Z,6.57
2024-02-13T06:12:13.514Z,7.00
2024-02-13T06:14:43.759Z,6.47
2024-02-13T06:17:13.366Z,6.40
2024-02-13T06:19:42.522Z,5.97
2024-02-13T06:22:12.632Z,5.43
2024-02-13T06:24:42.441Z,6.23
2024-02-13T06:27:11.464Z,5.57
2024-02-13T06:29:40.125Z,5.20
2024-02-13T06:32:08.739Z,5.40
2024-02-13T06:34:37.706Z,5.53
2024-02-13T06:37:06.573Z,5.60
2024-02-13T06:39:36.959Z,5.63
2024-02-13T06:42:06.118Z,6.00
2024-02-13T06:44:34.745Z,5.57
2024-02-13T06:47:07.437Z,6.10
2024-02-13T06:49:37.038Z,5.73
2024-02-13T06:52:06.542Z,5.87
2024-02-13T06:54:36.438Z,6.90
2024-02-13T06:57:05.757Z,6.63
2024-02-13T06:59:34.239Z,7.10
2024-02-13T07:02:02.759Z,7.90
2024-02-13T07:04:31.651Z,8.30
2024-02-13T07:07:18.657Z,7.63
2024-02-13T07:09:57.172Z,7.97
2024-02-13T07:12:25.739Z,8.40
2024-02-13T07:14:55.481Z,7.30
2024-02-13T07:17:24.370Z,7.20
2024-02-13T07:19:53.153Z,8.20
2024-02-13T07:22:21.978Z,8.00
2024-02-13T07:24:50.854Z,8.00
2024-02-13T07:27:20.808Z,7.97
2024-02-13T07:29:49.443Z,7.97
2024-02-13T07:32:18.646Z,7.77
2024-02-13T07:34:48.752Z,9.70
2024-02-13T07:37:17.242Z,7.57
2024-02-13T07:39:46.013Z,7.83
2024-02-13T07:42:15.183Z,7.90
2024-02-13T07:44:45.144Z,8.60
2024-02-13T07:47:15.011Z,8.17
2024-02-13T07:49:43.701Z,8.67
2024-02-13T07:52:13.408Z,7.60
2024-02-13T07:54:42.998Z,7.40
2024-02-13T07:57:15.448Z,8.70
2024-02-13T07:59:46.068Z,8.77
2024-02-13T08:02:15.728Z,8.33
2024-02-13T08:04:44.658Z,8.63
2024-02-13T08:07:13.210Z,8.10
2024-02-13T08:09:41.743Z,8.53
2024-02-13T08:12:12.934Z,7.90
2024-02-13T08:14:41.558Z,8.33
2024-02-13T08:17:13.181Z,8.23
2024-02-13T08:19:42.261Z,8.77
2024-02-13T08:22:11.567Z,8.73
2024-02-13T08:24:40.586Z,8.97
2024-02-13T08:27:09.077Z,9.47
2024-02-13T08:29:38.107Z,8.37
2024-02-13T08:32:07.773Z,9.70
2024-02-13T08:34:39.571Z,10.00
2024-02-13T08:37:09.323Z,9.23
2024-02-13T08:39:39.654Z,9.27
2024-02-13T08:42:08.262Z,9.40
2024-02-13T08:44:36.993Z,9.13
2024-02-13T08:47:06.264Z,9.23
2024-02-13T08:49:35.122Z,10.00
2024-02-13T08:52:05.951Z,8.10
2024-02-13T08:54:35.183Z,8.60
2024-02-13T08:57:04.424Z,7.80
2024-02-13T08:59:33.282Z,9.00
2024-02-13T09:02:02.048Z,8.37
2024-02-13T09:04:31.319Z,8.07
2024-02-13T09:06:59.892Z,7.87
2024-02-13T09:09:30.143Z,7.03
2024-02-13T09:11:58.797Z,7.77
2024-02-13T09:14:27.926Z,7.03
2024-02-13T09:16:58.566Z,7.67
2024-02-13T09:19:27.826Z,7.10
2024-02-13T09:21:56.880Z,7.43
2024-02-13T09:24:27.497Z,6.87
2024-02-13T09:26:57.636Z,7.00
2024-02-13T09:29:26.371Z,7.07
2024-02-13T09:31:55.763Z,7.23
2024-02-13T09:34:24.328Z,6.83
2024-02-13T09:36:52.912Z,6.83
2024-02-13T09:39:21.494Z,6.87
2024-02-13T09:41:52.014Z,6.87
2024-02-13T09:44:22.212Z,6.37
2024-02-13T09:46:53.646Z,7.03
2024-02-13T09:49:25.041Z,7.40
2024-02-13T09:51:58.145Z,7.03
2024-02-13T09:54:27.569Z,6.53
2024-02-13T09:56:57.585Z,6.80
2024-02-13T09:59:27.776Z,6.27
2024-02-13T10:01:56.926Z,6.63
2024-02-13T10:04:25.754Z,6.57
2024-02-13T10:06:56.242Z,6.50
2024-02-13T10:09:28.427Z,6.40
2024-02-13T10:11:57.455Z,6.17
2024-02-13T10:14:27.434Z,6.20
2024-02-13T10:16:58.449Z,6.40
2024-02-13T10:19:31.264Z,6.23
2024-02-13T10:22:07.730Z,6.33
2024-02-13T10:24:36.296Z,5.83
2024-02-13T10:27:06.412Z,6.37
2024-02-13T10:29:44.430Z,5.23
2024-02-13T10:32:13.499Z,6.00
2024-02-13T10:34:42.896Z,6.03
2024-02-13T10:37:15.079Z,5.20
2024-02-13T10:39:48.509Z,5.77
2024-02-13T10:42:24.707Z,5.73
2024-02-13T10:44:56.748Z,5.30
2024-02-13T10:47:29.878Z,4.83
2024-02-13T10:50:01.200Z,5.07
2024-02-13T10:52:31.053Z,5.23
2024-02-13T10:55:04.772Z,5.30
2024-02-13T10:57:34.912Z,5.13
2024-02-13T11:00:09.555Z,4.63
2024-02-13T11:02:38.761Z,4.77
2024-02-13T11:05:09.541Z,4.83
2024-02-13T11:07:42.984Z,4.77
2024-02-13T11:10:13.680Z,4.77
2024-02-13T11:12:43.520Z,4.40
2024-02-13T11:15:17.400Z,4.53
2024-02-13T11:17:59.939Z,4.47
2024-02-13T11:20:30.168Z,5.00
2024-02-13T11:23:19.344Z,4.50
2024-02-13T11:25:58.806Z,4.40
2024-02-13T11:28:33.998Z,4.50
2024-02-13T11:31:15.551Z,4.43
2024-02-13T11:34:05.218Z,4.70
2024-02-13T11:36:36.698Z,4.67
2024-02-13T11:39:07.780Z,4.80
2024-02-13T11:41:37.380Z,4.77
2024-02-13T11:44:11.107Z,5.07
2024-02-13T11:46:51.563Z,4.30
2024-02-13T11:49:20.608Z,4.30
2024-02-13T11:51:50.280Z,4.40
2024-02-13T11:54:20.009Z,4.53
2024-02-13T11:56:48.874Z,4.93
2024-02-13T11:59:17.602Z,4.53
2024-02-13T12:01:49.458Z,4.30
2024-02-13T12:04:24.950Z,4.70
2024-02-13T12:06:53.753Z,4.47
2024-02-13T12:09:22.694Z,4.70
2024-02-13T12:11:52.703Z,5.33
2024-02-13T12:14:21.636Z,4.57
2024-02-13T12:16:52.005Z,4.37
2024-02-13T12:19:21.307Z,4.20
2024-02-13T12:21:50.421Z,4.60
2024-02-13T12:24:21.773Z,4.70
2024-02-13T12:26:53.330Z,4.37
2024-02-13T12:29:25.957Z,4.30
2024-02-13T12:31:55.798Z,4.30
2024-02-13T12:34:26.729Z,4.10
2024-02-13T12:36:58.773Z,4.53
2024-02-13T12:39:28.977Z,4.47
2024-02-13T12:41:58.721Z,4.90
2024-02-13T12:44:29.268Z,4.50
2024-02-13T12:46:59.249Z,5.00
2024-02-13T12:49:28.243Z,4.43
2024-02-13T12:51:56.921Z,4.07
2024-02-13T12:54:27.732Z,4.13
2024-02-13T12:56:57.900Z,4.30
2024-02-13T12:59:26.675Z,4.80
2024-02-13T13:01:59.980Z,4.97
2024-02-13T13:04:32.219Z,4.80
2024-02-13T13:07:00.858Z,4.50
2024-02-13T13:09:30.032Z,4.50
2024-02-13T13:12:00.013Z,4.57
2024-02-13T13:14:29.295Z,4.50
2024-02-13T13:16:58.186Z,4.73
2024-02-13T13:19:30.382Z,4.30
2024-02-13T13:22:00.516Z,4.10
2024-02-13T13:24:30.088Z,4.03
2024-02-13T13:26:58.939Z,3.80
2024-02-13T13:29:27.551Z,4.00
2024-02-13T13:31:56.488Z,4.23
2024-02-13T13:34:27.865Z,4.00
2024-02-13T13:36:58.959Z,4.00
2024-02-13T13:39:31.128Z,4.17
2024-02-13T13:42:09.686Z,4.33
2024-02-13T13:44:41.515Z,3.67
2024-02-13T13:47:10.083Z,4.03
2024-02-13T13:49:39.192Z,3.80
2024-02-13T13:52:08.438Z,4.60
2024-02-13T13:54:38.358Z,4.10
2024-02-13T13:57:07.376Z,4.27
2024-02-13T13:59:36.050Z,4.30
2024-02-13T14:02:04.777Z,4.23
2024-02-13T14:04:33.317Z,4.20
2024-02-13T14:07:01.891Z,4.60
2024-02-13T14:09:30.886Z,4.30
2024-02-13T14:12:06.486Z,5.00
2024-02-13T14:14:35.923Z,4.13
2024-02-13T14:17:07.441Z,4.40
2024-02-13T14:19:36.804Z,4.40
2024-02-13T14:22:12.523Z,4.03
2024-02-13T14:24:41.346Z,4.60
2024-02-13T14:27:13.442Z,4.97
2024-02-13T14:29:43.824Z,4.33
2024-02-13T14:32:12.897Z,4.40
2024-02-13T14:34:46.676Z,4.90
2024-02-13T14:37:15.809Z,4.17
2024-02-13T14:39:45.701Z,4.67
2024-02-13T14:42:16.097Z,4.30
2024-02-13T14:44:44.875Z,4.60
2024-02-13T14:47:13.663Z,4.60
2024-02-13T14:49:42.674Z,4.07
2024-02-13T14:52:11.510Z,4.50
2024-02-13T14:54:46.229Z,4.33
2024-02-13T14:57:18.384Z,4.10
2024-02-13T14:59:48.609Z,4.30
2024-02-13T15:02:19.290Z,5.00
2024-02-13T15:04:49.589Z,4.57
2024-02-13T15:07:19.877Z,4.53
2024-02-13T15:09:49.463Z,4.10
2024-02-13T15:12:21.257Z,4.80
2024-02-13T15:14:51.058Z,4.77
2024-02-13T15:17:21.385Z,4.50
2024-02-13T15:19:51.241Z,4.63
2024-02-13T15:22:21.608Z,4.77
2024-02-13T15:24:50.562Z,4.30
2024-02-13T15:27:22.466Z,4.50
2024-02-13T15:29:51.021Z,4.30
2024-02-13T15:32:19.953Z,4.43
2024-02-13T15:34:48.834Z,4.70
2024-02-13T15:37:42.992Z,4.43
2024-02-13T15:40:29.975Z,6.30
2024-02-13T15:43:17.348Z,5.50
2024-02-13T15:46:03.364Z,7.07
2024-02-13T15:48:33.626Z,10.27
2024-02-13T15:51:05.857Z,18.53
2024-02-13T15:53:35.209Z,15.33
2024-02-13T15:56:05.553Z,17.13
2024-02-13T15:58:36.221Z,17.73
2024-02-13T16:01:05.462Z,15.17
2024-02-13T16:03:37.291Z,8.63
2024-02-13T16:06:06.577Z,4.93
2024-02-13T16:08:35.928Z,4.43
2024-02-13T16:11:06.257Z,5.00
2024-02-13T16:13:37.349Z,5.57
2024-02-13T16:16:08.662Z,5.03
2024-02-13T16:18:37.803Z,4.73
2024-02-13T16:21:06.959Z,4.70
2024-02-13T16:23:36.370Z,5.40
2024-02-13T16:26:05.866Z,5.00
2024-02-13T16:28:41.602Z,5.67
2024-02-13T16:31:10.909Z,4.83
2024-02-13T16:33:40.061Z,5.00
2024-02-13T16:36:10.481Z,5.23
2024-02-13T16:38:43.188Z,5.87
2024-02-13T16:41:16.852Z,5.50
2024-02-13T16:43:53.133Z,4.80
2024-02-13T16:46:23.281Z,6.10
2024-02-13T16:49:04.788Z,5.67
2024-02-13T16:52:16.353Z,5.60
2024-02-13T16:54:54.930Z,6.00
2024-02-13T16:57:24.285Z,6.20
2024-02-13T17:00:01.801Z,6.40
2024-02-13T17:02:31.977Z,5.20
2024-02-13T17:05:40.601Z,6.10
2024-02-13T17:08:32.986Z,5.53
2024-02-13T17:11:10.585Z,5.90
2024-02-13T17:13:46.828Z,5.10
2024-02-13T17:16:21.934Z,5.93
2024-02-13T17:18:55.773Z,6.13
2024-02-13T17:21:25.048Z,5.57
2024-02-13T17:23:57.905Z,5.23
2024-02-13T17:26:27.263Z,5.03
2024-02-13T17:28:56.586Z,4.80
2024-02-13T17:31:26.658Z,5.13
2024-02-13T17:33:55.485Z,4.77
2024-02-13T17:36:24.211Z,5.13
2024-02-13T17:38:53.617Z,5.10
2024-02-13T17:41:23.724Z,5.23
2024-02-13T17:43:52.441Z,5.37
2024-02-13T17:46:33.520Z,5.23
2024-02-13T17:49:36.446Z,4.73
2024-02-13T17:52:06.714Z,4.80
2024-02-13T17:54:35.345Z,4.77
2024-02-13T17:57:04.753Z,4.63
2024-02-13T17:59:35.019Z,5.03
2024-02-13T18:02:04.628Z,4.60
2024-02-13T18:04:33.740Z,5.03
2024-02-13T18:07:04.920Z,4.90
2024-02-13T18:09:37.455Z,5.33
2024-02-13T18:13:00.992Z,4.30
2024-02-13T18:15:58.222Z,5.53
2024-02-13T18:18:28.334Z,4.70
2024-02-13T18:20:59.002Z,5.00
2024-02-13T18:23:29.259Z,5.67
2024-02-13T18:26:00.934Z,4.47
2024-02-13T18:28:31.565Z,5.30
2024-02-13T18:31:11.651Z,4.60
2024-02-13T18:34:21.345Z,5.30
2024-02-13T18:37:43.821Z,4.60
2024-02-13T18:40:16.490Z,5.23
2024-02-13T18:42:45.569Z,5.10
2024-02-13T18:45:14.783Z,4.27
2024-02-13T18:47:45.689Z,5.10
2024-02-13T18:50:17.865Z,4.37
2024-02-13T18:52:48.312Z,4.80
2024-02-13T18:55:18.889Z,5.77
2024-02-13T18:57:49.411Z,4.97
2024-02-13T19:00:18.601Z,5.03
2024-02-13T19:02:49.614Z,4.90
2024-02-13T19:05:19.090Z,4.30
2024-02-13T19:07:52.134Z,4.90
2024-02-13T19:10:22.603Z,5.10
2024-02-13T19:12:51.550Z,5.40
2024-02-13T19:15:20.969Z,4.73
2024-02-13T19:17:49.813Z,4.97
2024-02-13T19:20:19.734Z,5.77
2024-02-13T19:22:50.214Z,4.43
2024-02-13T19:25:20.095Z,4.80
2024-02-13T19:27:50.862Z,4.77
2024-02-13T19:30:19.574Z,5.40
2024-02-13T19:33:00.613Z,5.63
2024-02-13T19:35:29.808Z,5.50
2024-02-13T19:38:01.075Z,5.83
2024-02-13T19:40:29.738Z,5.70
2024-02-13T19:43:02.046Z,5.37
2024-02-13T19:45:31.882Z,4.97
2024-02-13T19:48:17.113Z,5.50
2024-02-13T19:51:07.361Z,5.10
2024-02-13T19:53:56.552Z,4.63
2024-02-13T19:57:11.844Z,5.00
2024-02-13T20:00:07.182Z,5.50
2024-02-13T20:03:22.643Z,5.50
2024-02-13T20:06:39.611Z,5.70
2024-02-13T20:09:11.211Z,5.90
2024-02-13T20:11:43.434Z,5.30
2024-02-13T20:14:15.111Z,5.80
2024-02-13T20:16:46.858Z,5.90
2024-02-13T20:19:23.121Z,5.10
2024-02-13T20:22:01.546Z,5.57
2024-02-13T20:25:02.991Z,5.73
2024-02-13T20:27:44.840Z,6.40
2024-02-13T20:30:16.078Z,6.50
2024-02-13T20:32:49.146Z,6.07
2024-02-13T20:35:20.935Z,5.73
2024-02-13T20:37:50.586Z,5.90
2024-02-13T20:40:20.254Z,5.93
2024-02-13T20:43:20.330Z,6.17
2024-02-13T20:45:49.929Z,6.20
2024-02-13T20:48:27.325Z,5.77
2024-02-13T20:51:01.959Z,5.60
2024-02-13T20:53:32.049Z,5.90
2024-02-13T20:56:02.957Z,6.23
2024-02-13T20:58:32.719Z,6.60
2024-02-13T21:01:01.879Z,5.87
2024-02-13T21:03:32.566Z,6.30
2024-02-13T21:06:01.868Z,6.60
2024-02-13T21:08:31.714Z,8.30
2024-02-13T21:11:00.840Z,6.50
2024-02-13T21:13:32.002Z,6.37
2024-02-13T21:16:01.838Z,7.43
2024-02-13T21:18:50.228Z,7.07
2024-02-13T21:21:33.447Z,7.90
2024-02-13T21:24:03.318Z,7.00
2024-02-13T21:26:32.592Z,7.53
2024-02-13T21:29:03.526Z,7.03
2024-02-13T21:31:32.427Z,6.50
2024-02-13T21:34:06.688Z,7.00
2024-02-13T21:36:36.310Z,6.57
2024-02-13T21:39:09.064Z,6.80
2024-02-13T21:41:38.915Z,6.80
2024-02-13T21:44:09.991Z,6.33
2024-02-13T21:46:38.720Z,6.47
2024-02-13T21:49:08.736Z,6.33
2024-02-13T21:51:39.765Z,7.00
2024-02-13T21:54:08.528Z,6.47
2024-02-13T21:56:37.279Z,6.07
2024-02-13T21:59:06.796Z,6.93
2024-02-13T22:01:35.942Z,6.27
2024-02-13T22:04:04.799Z,6.73
2024-02-13T22:09:06.187Z,7.27
2024-02-13T22:11:35.480Z,6.93
2024-02-13T22:14:04.192Z,6.50
2024-02-13T22:16:33.221Z,6.73
2024-02-13T22:19:04.499Z,6.73
2024-02-13T22:21:34.602Z,7.20
2024-02-13T22:24:04.884Z,6.30
2024-02-13T22:26:38.741Z,7.17
2024-02-13T22:29:08.734Z,5.93
2024-02-13T22:31:37.569Z,6.97
2024-02-13T22:34:07.802Z,6.33
2024-02-13T22:36:38.311Z,5.93
2024-02-13T22:39:06.929Z,5.73
2024-02-13T22:41:35.675Z,5.40
2024-02-13T22:44:07.003Z,6.13
2024-02-13T22:46:36.366Z,5.87
2024-02-13T22:49:05.595Z,6.00
2024-02-13T22:51:34.296Z,6.23
2024-02-13T22:54:04.902Z,5.60
2024-02-13T22:56:33.703Z,4.93
2024-02-13T22:59:02.407Z,6.10
2024-02-13T23:01:34.862Z,5.00
2024-02-13T23:04:05.721Z,5.50
2024-02-13T23:06:36.168Z,5.47
2024-02-13T23:09:11.104Z,4.87
2024-02-13T23:11:40.364Z,5.13
2024-02-13T23:14:08.931Z,6.00
2024-02-13T23:16:40.461Z,5.57
2024-02-13T23:19:10.244Z,5.00
2024-02-13T23:21:39.726Z,5.30
2024-02-13T23:24:12.015Z,5.73
2024-02-13T23:26:42.115Z,6.50
2024-02-13T23:29:13.019Z,6.23
2024-02-13T23:31:41.876Z,6.47
2024-02-13T23:34:11.670Z,6.20
2024-02-13T23:36:40.648Z,6.07
2024-02-13T23:39:12.678Z,6.10
2024-02-13T23:41:41.347Z,5.63
2024-02-13T23:44:10.520Z,5.93
2024-02-13T23:46:40.589Z,5.83
2024-02-13T23:49:10.623Z,6.30
2024-02-13T23:51:40.417Z,6.03
2024-02-13T23:54:11.659Z,6.83
2024-02-13T23:56:40.424Z,7.00
2024-02-13T23:59:09.497Z,6.37
